Time;durP1;ratioP1;P1;durP2;ratioP2;P2;SDS_P1;SDS_P2;PMS_P1;PMS_P2;Temp;Humidity;BMP_temperature;BMP_pressure;BME280_temperature;BME280_humidity;BME280_pressure;Samples;Min_cycle;Max_cycle;Signal;HPM_P1;HPM_P2
2022/02/19 00:02:11;;;;;;;31.02;15.48;;;12.80;96.70;;;;;;4995941;28;20036;-64
2022/02/19 00:04:37;;;;;;;30.77;15.75;;;12.80;96.70;;;;;;4998144;28;20031;-63
2022/02/19 00:07:04;;;;;;;29.38;15.88;;;12.70;96.60;;;;;;4997935;28;20026;-66
2022/02/19 00:09:30;;;;;;;31.90;17.65;;;12.70;96.60;;;;;;4997940;28;20022;-63
2022/02/19 00:11:56;;;;;;;31.83;15.57;;;12.70;96.70;;;;;;4996941;28;20475;-69
2022/02/19 00:14:22;;;;;;;33.10;16.08;;;12.70;96.70;;;;;;4996727;28;20463;-66
2022/02/19 00:16:49;;;;;;;32.05;16.70;;;12.70;96.60;;;;;;4996519;28;20030;-67
2022/02/19 00:19:15;;;;;;;37.85;17.45;;;12.70;96.60;;;;;;4996575;28;20033;-69
2022/02/19 00:21:42;;;;;;;28.98;16.13;;;12.70;96.70;;;;;;4996226;28;20395;-76
2022/02/19 00:24:07;;;;;;;31.33;16.67;;;12.70;96.60;;;;;;4995473;28;20036;-68
2022/02/19 00:26:34;;;;;;;27.45;16.40;;;12.60;96.60;;;;;;4996715;28;20034;-80
2022/02/19 00:29:00;;;;;;;34.78;15.43;;;12.60;96.70;;;;;;4996433;28;20475;-68
2022/02/19 00:31:26;;;;;;;29.05;16.15;;;12.50;96.70;;;;;;4996467;28;20038;-67
2022/02/19 00:33:53;;;;;;;29.58;16.38;;;12.50;96.80;;;;;;4996496;28;20030;-67
2022/02/19 00:36:19;;;;;;;30.90;16.85;;;12.50;97.10;;;;;;4996298;28;20077;-78
2022/02/19 00:38:45;;;;;;;34.58;17.83;;;12.50;97.00;;;;;;4997510;28;20037;-78
2022/02/19 00:41:11;;;;;;;32.67;17.27;;;12.50;97.00;;;;;;4997050;28;20081;-73
2022/02/19 00:43:37;;;;;;;33.60;19.00;;;12.50;97.10;;;;;;4996535;28;20392;-71
2022/02/19 00:46:03;;;;;;;31.20;17.83;;;12.50;97.10;;;;;;4996597;28;20042;-79
2022/02/19 00:48:28;;;;;;;34.70;19.42;;;12.50;97.00;;;;;;4978971;28;20125;-77
2022/02/19 00:50:54;;;;;;;25.88;16.75;;;12.50;97.00;;;;;;4996587;28;20030;-78
2022/02/19 00:53:19;;;;;;;24.08;17.23;;;12.50;97.00;;;;;;4995755;28;20026;-73
2022/02/19 00:55:45;;;;;;;33.72;17.50;;;12.40;97.10;;;;;;4995615;28;20101;-63
2022/02/19 00:58:11;;;;;;;34.05;18.98;;;12.40;97.20;;;;;;4996379;28;20479;-80
2022/02/19 01:00:36;;;;;;;29.38;19.27;;;12.30;97.10;;;;;;4996114;28;20038;-78
2022/02/19 01:03:03;;;;;;;32.92;18.38;;;12.30;97.40;;;;;;4995726;28;20025;-69
2022/02/19 01:05:29;;;;;;;30.25;18.60;;;12.30;97.40;;;;;;4995893;28;20365;-69
2022/02/19 01:07:55;;;;;;;29.08;19.50;;;12.30;97.50;;;;;;4978095;28;20479;-69
2022/02/19 01:10:21;;;;;;;33.67;18.35;;;12.20;97.50;;;;;;4978461;28;20027;-71
2022/02/19 01:12:48;;;;;;;35.90;18.35;;;12.20;97.60;;;;;;4994732;28;20045;-78
2022/02/19 01:15:13;;;;;;;32.25;17.88;;;12.10;97.50;;;;;;4996468;28;20030;-79
2022/02/19 01:17:41;;;;;;;23.25;15.40;;;12.10;97.70;;;;;;4995960;28;20453;-68
2022/02/19 01:20:08;;;;;;;32.90;17.02;;;12.10;97.90;;;;;;4978081;28;20035;-68
2022/02/19 01:22:35;;;;;;;26.25;16.20;;;12.20;97.80;;;;;;4995572;28;20041;-64
2022/02/19 01:25:02;;;;;;;33.88;16.65;;;12.20;97.50;;;;;;4995401;28;20029;-68
2022/02/19 01:27:28;;;;;;;29.33;16.98;;;12.20;97.60;;;;;;4995369;28;20026;-68
2022/02/19 01:29:53;;;;;;;30.25;17.52;;;12.20;97.50;;;;;;4995198;28;20356;-67
2022/02/19 01:32:21;;;;;;;29.00;16.73;;;12.20;97.60;;;;;;4995379;28;20026;-78
2022/02/19 01:34:46;;;;;;;27.88;16.10;;;12.20;97.60;;;;;;4996036;28;20038;-79
2022/02/19 01:37:13;;;;;;;31.95;17.55;;;12.10;97.60;;;;;;4995825;28;20040;-66
2022/02/19 01:39:39;;;;;;;28.90;16.98;;;12.10;97.80;;;;;;4995185;28;20026;-67
2022/02/19 01:42:04;;;;;;;24.95;16.83;;;12.10;98.00;;;;;;4994786;28;20137;-65
2022/02/19 01:44:38;;;;;;;31.08;16.73;;;12.00;97.90;;;;;;4977507;28;20041;-66
2022/02/19 01:47:05;;;;;;;25.98;15.35;;;12.00;98.00;;;;;;4995002;28;20419;-66
2022/02/19 01:49:31;;;;;;;28.27;15.27;;;11.90;98.00;;;;;;4996643;28;20020;-78
2022/02/19 01:51:57;;;;;;;26.90;15.13;;;11.90;98.20;;;;;;4995779;28;20490;-76
2022/02/19 01:54:23;;;;;;;24.67;16.40;;;11.80;98.30;;;;;;4995485;28;20383;-65
2022/02/19 01:56:48;;;;;;;27.88;16.08;;;11.80;98.40;;;;;;4994786;28;20034;-64
2022/02/19 01:59:14;;;;;;;27.33;15.85;;;11.80;98.50;;;;;;4995638;28;20026;-77
2022/02/19 02:01:40;;;;;;;23.85;15.32;;;11.70;98.30;;;;;;4977229;28;20598;-78
2022/02/19 02:04:06;;;;;;;27.48;16.67;;;11.70;98.60;;;;;;4994528;28;20022;-68
2022/02/19 02:06:32;;;;;;;24.92;15.40;;;11.70;98.60;;;;;;4994355;28;20030;-64
2022/02/19 02:08:59;;;;;;;25.30;14.40;;;11.70;98.40;;;;;;4994285;28;20022;-70
2022/02/19 02:11:25;;;;;;;24.50;15.60;;;11.70;98.70;;;;;;4994794;28;20023;-72
2022/02/19 02:13:51;;;;;;;26.77;15.35;;;11.70;98.60;;;;;;4994474;28;20026;-64
2022/02/19 02:16:17;;;;;;;22.65;15.15;;;11.80;98.60;;;;;;4994325;28;20483;-67
2022/02/19 02:18:46;;;;;;;26.10;15.05;;;11.80;98.60;;;;;;4994967;28;20030;-64
2022/02/19 02:21:12;;;;;;;24.65;14.68;;;11.80;98.80;;;;;;4994266;28;20052;-76
2022/02/19 02:23:38;;;;;;;34.97;21.90;;;11.80;98.70;;;;;;4994511;28;20431;-78
2022/02/19 02:26:05;;;;;;;24.98;15.98;;;11.90;98.70;;;;;;4994630;28;20027;-78
2022/02/19 02:28:31;;;;;;;23.13;14.00;;;11.90;98.70;;;;;;4961347;28;20057;-79
2022/02/19 02:30:57;;;;;;;26.05;13.98;;;11.90;98.70;;;;;;4994057;28;20100;-64
2022/02/19 02:33:23;;;;;;;28.50;15.05;;;11.80;98.70;;;;;;4993844;28;20033;-63
2022/02/19 02:35:52;;;;;;;28.73;14.45;;;11.80;98.80;;;;;;4993927;28;20069;-65
2022/02/19 02:38:18;;;;;;;28.52;14.60;;;11.80;98.80;;;;;;4993592;28;20034;-64
2022/02/19 02:40:44;;;;;;;25.42;14.80;;;11.80;98.80;;;;;;4976275;28;20349;-65
2022/02/19 02:43:10;;;;;;;25.40;14.23;;;11.80;99.00;;;;;;4993642;28;20058;-65
2022/02/19 02:45:36;;;;;;;21.85;13.73;;;11.80;99.00;;;;;;4976274;28;20049;-65
2022/02/19 02:48:03;;;;;;;25.65;13.32;;;11.80;99.00;;;;;;4993637;28;20049;-64
2022/02/19 02:50:28;;;;;;;23.02;14.13;;;11.80;99.00;;;;;;4993502;28;20025;-63
2022/02/19 02:52:54;;;;;;;24.55;13.32;;;11.80;99.00;;;;;;4993554;28;20078;-67
2022/02/19 02:55:20;;;;;;;24.35;13.40;;;11.80;98.90;;;;;;4993622;28;20084;-64
2022/02/19 02:57:46;;;;;;;27.65;13.57;;;11.80;99.00;;;;;;4993272;28;20034;-65
2022/02/19 03:00:13;;;;;;;20.70;12.55;;;11.80;99.00;;;;;;4993398;28;20431;-64
2022/02/19 03:02:40;;;;;;;24.50;13.98;;;11.80;99.00;;;;;;4992635;28;20061;-64
2022/02/19 03:05:10;;;;;;;24.08;12.93;;;11.80;99.00;;;;;;4993349;28;20077;-69
2022/02/19 03:07:36;;;;;;;21.08;13.35;;;11.80;98.90;;;;;;4993521;28;20022;-64
2022/02/19 03:10:03;;;;;;;29.80;13.68;;;11.70;99.00;;;;;;4993459;28;20045;-64
2022/02/19 03:12:29;;;;;;;25.85;13.77;;;11.70;99.00;;;;;;4993317;28;20480;-65
2022/02/19 03:14:55;;;;;;;23.73;12.50;;;11.70;99.00;;;;;;4993252;28;20029;-63
2022/02/19 03:17:20;;;;;;;21.15;11.27;;;11.70;99.10;;;;;;4994246;28;20034;-69
2022/02/19 03:19:46;;;;;;;18.77;11.63;;;11.70;99.00;;;;;;4993662;28;20029;-73
2022/02/19 03:22:12;;;;;;;19.98;11.75;;;11.60;98.90;;;;;;4994079;28;20500;-76
2022/02/19 03:24:39;;;;;;;20.63;12.10;;;11.60;98.90;;;;;;4976561;28;20044;-69
2022/02/19 03:27:06;;;;;;;20.40;11.45;;;11.60;99.00;;;;;;4976193;28;20055;-75
2022/02/19 03:29:34;;;;;;;21.55;12.07;;;11.50;98.90;;;;;;4992840;28;20023;-68
2022/02/19 03:32:00;;;;;;;14.05;10.00;;;11.50;99.10;;;;;;4993336;28;20042;-77
2022/02/19 03:34:26;;;;;;;18.13;10.35;;;11.50;99.10;;;;;;4993901;28;20118;-66
2022/02/19 03:36:51;;;;;;;19.88;11.57;;;11.50;99.00;;;;;;4997765;28;20109;-76
2022/02/19 03:39:18;;;;;;;23.67;11.25;;;11.60;99.20;;;;;;5015692;28;20031;-72
2022/02/19 03:41:43;;;;;;;19.15;10.82;;;11.60;99.20;;;;;;5013612;28;20069;-77
2022/02/19 03:44:11;;;;;;;25.92;11.23;;;11.50;99.10;;;;;;5010590;28;20026;-74
2022/02/19 03:46:37;;;;;;;18.05;10.27;;;11.50;99.10;;;;;;5004850;28;20041;-70
2022/02/19 03:49:03;;;;;;;16.67;9.75;;;11.50;99.20;;;;;;4997080;28;20029;-66
2022/02/19 03:51:30;;;;;;;19.27;10.73;;;11.50;99.20;;;;;;4996884;28;20027;-64
2022/02/19 03:53:56;;;;;;;17.25;10.43;;;11.50;99.30;;;;;;4997099;28;20082;-67
2022/02/19 03:56:23;;;;;;;16.90;10.68;;;11.50;99.30;;;;;;4997287;28;20181;-69
2022/02/19 03:58:48;;;;;;;18.45;11.60;;;11.50;99.30;;;;;;4979698;28;20433;-75
2022/02/19 04:01:14;;;;;;;20.73;11.13;;;11.50;99.20;;;;;;4997020;28;20042;-63
2022/02/19 04:03:40;;;;;;;15.77;10.95;;;11.50;99.20;;;;;;4996817;28;20480;-66
2022/02/19 04:06:06;;;;;;;23.45;11.82;;;11.50;99.30;;;;;;4996988;28;20029;-72
2022/02/19 04:08:32;;;;;;;22.17;12.63;;;11.50;99.30;;;;;;4996792;28;20492;-68
2022/02/19 04:10:58;;;;;;;18.25;12.45;;;11.50;99.20;;;;;;4997221;28;20053;-71
2022/02/19 04:13:23;;;;;;;21.33;12.57;;;11.50;99.20;;;;;;4997931;28;20487;-77
2022/02/19 04:15:50;;;;;;;20.20;12.57;;;11.40;99.30;;;;;;4997413;28;20463;-68
2022/02/19 04:18:16;;;;;;;18.95;12.35;;;11.40;99.20;;;;;;4996685;28;20022;-64
2022/02/19 04:20:41;;;;;;;19.83;12.40;;;11.50;99.20;;;;;;4996624;28;20476;-70
2022/02/19 04:23:07;;;;;;;23.73;12.90;;;11.50;99.10;;;;;;4996654;28;20030;-75
2022/02/19 04:25:33;;;;;;;21.77;12.57;;;11.50;99.20;;;;;;4979245;28;20038;-65
2022/02/19 04:28:05;;;;;;;22.52;12.52;;;11.40;99.20;;;;;;4996445;28;20455;-68
2022/02/19 04:30:31;;;;;;;18.83;12.25;;;11.40;99.20;;;;;;4996143;28;20216;-70
2022/02/19 04:32:58;;;;;;;23.33;12.70;;;11.50;99.20;;;;;;4996199;28;20094;-67
2022/02/19 04:35:25;;;;;;;18.25;12.40;;;11.40;99.30;;;;;;4995907;28;20026;-68
2022/02/19 04:37:52;;;;;;;22.10;12.30;;;11.40;99.20;;;;;;4995907;28;20080;-67
2022/02/19 04:40:17;;;;;;;17.45;11.68;;;11.50;99.20;;;;;;4996010;28;20030;-65
2022/02/19 04:42:43;;;;;;;18.63;12.10;;;11.40;99.20;;;;;;4995845;28;20046;-66
2022/02/19 04:45:10;;;;;;;17.95;12.50;;;11.30;99.20;;;;;;4978413;28;20494;-63
2022/02/19 04:47:36;;;;;;;18.90;12.40;;;11.30;99.20;;;;;;4995102;28;20105;-65
2022/02/19 04:50:04;;;;;;;20.40;12.98;;;11.20;99.20;;;;;;4995714;28;20492;-64
2022/02/19 04:52:30;;;;;;;22.55;14.75;;;11.10;99.70;;;;;;4995745;28;20043;-66
2022/02/19 04:54:55;;;;;;;20.15;13.25;;;11.10;99.50;;;;;;4996023;28;20026;-68
2022/02/19 04:57:21;;;;;;;21.80;13.23;;;11.10;99.60;;;;;;4996172;28;20096;-64
2022/02/19 04:59:47;;;;;;;22.92;14.13;;;11.00;99.60;;;;;;4995893;28;20026;-71
2022/02/19 05:02:14;;;;;;;20.17;14.20;;;11.00;99.50;;;;;;4995928;28;20079;-76
2022/02/19 05:04:39;;;;;;;22.20;13.85;;;11.00;99.70;;;;;;4995997;28;20030;-63
2022/02/19 05:07:05;;;;;;;24.55;13.95;;;11.00;99.70;;;;;;4995289;28;20448;-63
2022/02/19 05:09:31;;;;;;;23.58;13.40;;;11.00;99.70;;;;;;4995223;28;20421;-62
2022/02/19 05:11:57;;;;;;;21.38;13.85;;;11.00;99.70;;;;;;4995404;28;20031;-63
2022/02/19 05:14:25;;;;;;;21.77;14.40;;;11.00;99.80;;;;;;4995313;28;20026;-63
2022/02/19 05:16:51;;;;;;;19.95;13.75;;;11.00;99.70;;;;;;4977810;28;20121;-63
2022/02/19 05:19:17;;;;;;;27.77;13.73;;;11.00;99.90;;;;;;4995373;28;20050;-68
2022/02/19 05:21:42;;;;;;;20.42;13.50;;;11.00;99.90;;;;;;4995118;28;20081;-67
2022/02/19 05:24:08;;;;;;;21.77;14.30;;;11.10;99.90;;;;;;4995384;28;20030;-64
2022/02/19 05:26:34;;;;;;;21.77;13.93;;;11.10;99.80;;;;;;4995253;28;20467;-65
2022/02/19 05:28:59;;;;;;;24.20;14.15;;;11.10;99.80;;;;;;4995115;28;20026;-63
2022/02/19 05:31:25;;;;;;;21.42;13.98;;;11.10;99.80;;;;;;4995615;28;20380;-62
2022/02/19 05:33:51;;;;;;;19.52;13.68;;;11.10;99.80;;;;;;4995020;28;20042;-64
2022/02/19 05:36:16;;;;;;;22.65;14.27;;;11.00;99.80;;;;;;4995016;28;20026;-64
2022/02/19 05:38:42;;;;;;;27.23;14.38;;;11.00;99.70;;;;;;4994811;28;20080;-66
2022/02/19 05:41:08;;;;;;;21.67;13.98;;;11.00;99.70;;;;;;4994535;28;20373;-64
2022/02/19 05:43:33;;;;;;;22.88;15.02;;;11.00;99.80;;;;;;4994606;28;20060;-64
2022/02/19 05:46:00;;;;;;;22.35;14.23;;;11.00;99.90;;;;;;4977342;28;20062;-65
2022/02/19 05:48:29;;;;;;;19.27;12.88;;;11.00;99.90;;;;;;4994617;28;20030;-70
2022/02/19 05:50:54;;;;;;;19.95;13.68;;;11.00;99.80;;;;;;4994573;28;20026;-66
2022/02/19 05:53:20;;;;;;;20.65;14.40;;;10.90;99.90;;;;;;4977137;28;20104;-65
2022/02/19 05:55:46;;;;;;;22.50;14.90;;;10.90;99.90;;;;;;4994569;28;20019;-63
2022/02/19 05:58:12;;;;;;;23.58;16.42;;;11.00;99.90;;;;;;4994150;28;20061;-63
2022/02/19 06:00:37;;;;;;;24.63;17.83;;;10.90;99.90;;;;;;4993495;28;20018;-69
2022/02/19 06:03:03;;;;;;;23.48;15.55;;;10.90;99.80;;;;;;4961136;28;20034;-64
2022/02/19 06:05:29;;;;;;;20.88;13.95;;;10.90;99.70;;;;;;4994421;28;20015;-65
2022/02/19 06:07:55;;;;;;;22.92;14.70;;;10.90;99.70;;;;;;4994434;28;20105;-63
2022/02/19 06:10:21;;;;;;;27.48;17.20;;;10.80;99.70;;;;;;4994214;28;20030;-64
2022/02/19 06:12:47;;;;;;;24.75;14.52;;;10.80;99.90;;;;;;4994207;28;20038;-63
2022/02/19 06:15:14;;;;;;;25.92;14.25;;;10.80;99.70;;;;;;4994077;28;20111;-62
2022/02/19 06:17:39;;;;;;;25.13;14.98;;;10.80;99.70;;;;;;4994181;28;20054;-66
2022/02/19 06:20:06;;;;;;;23.73;15.05;;;10.80;99.60;;;;;;4993954;28;20436;-65
2022/02/19 06:22:31;;;;;;;26.33;16.42;;;10.80;99.40;;;;;;4993955;28;20026;-65
2022/02/19 06:24:57;;;;;;;21.00;14.75;;;10.80;99.50;;;;;;4976597;28;20054;-64
2022/02/19 06:27:23;;;;;;;24.15;14.48;;;10.80;99.40;;;;;;4976583;28;20030;-64
2022/02/19 06:29:51;;;;;;;27.35;14.65;;;10.80;99.40;;;;;;4993876;28;20490;-65
2022/02/19 06:32:17;;;;;;;22.92;14.40;;;10.90;99.40;;;;;;4993754;28;20110;-64
2022/02/19 06:34:42;;;;;;;22.70;13.38;;;10.80;99.20;;;;;;4994071;28;20033;-65
2022/02/19 06:37:08;;;;;;;19.67;13.45;;;10.90;99.30;;;;;;4993596;28;20026;-64
2022/02/19 06:39:34;;;;;;;29.40;14.40;;;10.90;99.20;;;;;;4975661;28;20023;-63
2022/02/19 06:41:59;;;;;;;20.90;13.50;;;10.90;99.10;;;;;;4993273;28;20144;-63
2022/02/19 06:44:25;;;;;;;27.67;13.52;;;11.00;99.00;;;;;;4993546;28;20110;-64
2022/02/19 06:46:51;;;;;;;21.65;14.13;;;11.00;99.00;;;;;;4993577;28;20033;-63
2022/02/19 06:49:16;;;;;;;22.77;13.15;;;11.00;98.90;;;;;;4975796;28;20129;-64
2022/02/19 06:51:43;;;;;;;18.73;13.73;;;11.00;98.80;;;;;;4993426;28;20065;-66
2022/02/19 06:54:09;;;;;;;26.65;14.20;;;11.00;98.70;;;;;;4993329;28;20084;-64
2022/02/19 06:56:35;;;;;;;20.85;14.00;;;11.10;98.70;;;;;;4993415;28;20101;-64
2022/02/19 06:59:00;;;;;;;23.40;13.75;;;11.10;98.60;;;;;;4993338;28;20034;-64
2022/02/19 07:01:28;;;;;;;21.95;13.85;;;11.10;98.60;;;;;;4993031;28;20114;-64
2022/02/19 07:03:57;;;;;;;23.52;13.40;;;11.20;98.60;;;;;;4993512;28;20022;-74
2022/02/19 07:06:25;;;;;;;17.00;12.73;;;11.20;98.30;;;;;;4993386;28;20106;-64
2022/02/19 07:08:52;;;;;;;23.52;13.73;;;11.30;98.30;;;;;;4993205;28;20049;-65
2022/02/19 07:11:18;;;;;;;19.90;12.80;;;11.40;98.20;;;;;;4975740;28;20164;-65
2022/02/19 07:13:44;;;;;;;19.95;13.18;;;11.50;98.10;;;;;;4992530;28;20193;-65
2022/02/19 07:16:11;;;;;;;22.30;13.90;;;11.60;97.90;;;;;;4993100;28;20535;-64
2022/02/19 07:18:37;;;;;;;25.27;14.88;;;11.70;97.60;;;;;;4975742;28;20054;-64
2022/02/19 07:21:03;;;;;;;19.85;13.20;;;11.90;97.30;;;;;;4994293;28;20488;-65
2022/02/19 07:23:29;;;;;;;24.13;14.07;;;12.00;97.10;;;;;;4993968;28;20364;-64
2022/02/19 07:25:55;;;;;;;29.00;13.55;;;12.10;96.80;;;;;;4993197;28;20101;-64
2022/02/19 07:28:21;;;;;;;25.83;14.35;;;12.20;96.40;;;;;;4993087;28;20339;-68
2022/02/19 07:30:47;;;;;;;32.88;14.77;;;12.30;96.40;;;;;;4993378;28;20030;-65
2022/02/19 07:33:12;;;;;;;19.30;13.35;;;12.40;96.30;;;;;;4993000;28;20030;-63
2022/02/19 07:35:38;;;;;;;47.55;16.80;;;12.50;96.20;;;;;;4993198;28;20022;-70
2022/02/19 07:38:05;;;;;;;26.95;14.30;;;12.70;96.20;;;;;;4992634;28;20049;-71
2022/02/19 07:40:34;;;;;;;26.92;14.35;;;12.80;95.80;;;;;;4992511;28;20050;-70
2022/02/19 07:43:00;;;;;;;21.00;14.07;;;12.90;95.50;;;;;;4992155;28;20050;-68
2022/02/19 07:45:26;;;;;;;23.60;14.35;;;13.00;95.40;;;;;;4975734;28;20035;-65
2022/02/19 07:47:52;;;;;;;22.77;14.70;;;13.10;95.30;;;;;;4992694;28;20444;-66
2022/02/19 07:58:33;;;;;;;28.95;14.57;;;13.40;93.20;;;;;;4993160;28;19957;-77
2022/02/19 08:01:01;;;;;;;24.88;14.38;;;13.50;94.00;;;;;;4992062;28;20042;-68
2022/02/19 08:03:31;;;;;;;43.30;15.75;;;13.50;93.60;;;;;;4993287;28;20030;-75
2022/02/19 08:05:57;;;;;;;52.88;17.65;;;13.60;93.40;;;;;;4975964;28;20031;-72
2022/02/19 08:08:25;;;;;;;49.88;16.15;;;13.70;93.20;;;;;;4993245;28;20113;-78
2022/02/19 08:10:51;;;;;;;48.38;17.25;;;13.80;92.90;;;;;;4990161;28;20519;-75
2022/02/19 08:13:18;;;;;;;24.15;13.50;;;13.90;93.00;;;;;;4986777;28;20022;-72
2022/02/19 08:15:45;;;;;;;20.15;14.25;;;14.00;92.60;;;;;;4993538;28;20030;-67
2022/02/19 08:18:12;;;;;;;22.33;13.52;;;14.10;92.40;;;;;;4992819;28;20161;-66
2022/02/19 08:20:41;;;;;;;24.92;15.07;;;14.10;92.30;;;;;;4992625;28;20038;-66
2022/02/19 08:23:08;;;;;;;24.83;14.63;;;14.20;92.20;;;;;;4994286;28;20456;-68
2022/02/19 08:25:34;;;;;;;21.95;13.43;;;14.20;91.90;;;;;;4962561;28;20028;-64
2022/02/19 08:28:00;;;;;;;22.00;14.32;;;14.30;91.80;;;;;;4996019;28;20041;-68
2022/02/19 08:30:27;;;;;;;20.23;14.05;;;14.30;91.70;;;;;;4978283;28;20333;-67
2022/02/19 08:32:53;;;;;;;52.17;17.10;;;14.40;91.60;;;;;;4996060;28;20038;-66
2022/02/19 08:35:18;;;;;;;36.65;15.90;;;14.40;91.40;;;;;;4990689;28;20027;-68
2022/02/19 08:37:44;;;;;;;46.42;14.57;;;14.50;91.20;;;;;;4968976;28;20032;-66
2022/02/19 08:40:14;;;;;;;30.38;14.50;;;14.60;90.90;;;;;;4995869;28;20030;-65
2022/02/19 08:42:41;;;;;;;65.95;18.95;;;14.60;90.80;;;;;;4995446;28;20069;-72
2022/02/19 08:45:07;;;;;;;46.45;16.20;;;14.60;90.90;;;;;;4995825;28;20443;-68
2022/02/19 08:47:34;;;;;;;34.25;14.90;;;14.70;90.70;;;;;;5000779;28;20025;-67
2022/02/19 08:50:04;;;;;;;23.95;13.10;;;14.80;90.70;;;;;;4976257;28;20388;-69
2022/02/19 08:52:31;;;;;;;22.65;12.65;;;14.90;90.50;;;;;;4993377;28;20053;-69
2022/02/19 08:54:57;;;;;;;46.03;15.52;;;15.00;90.20;;;;;;4986105;28;20018;-71
2022/02/19 08:57:23;;;;;;;27.55;13.73;;;15.00;90.30;;;;;;5000201;28;20030;-71
2022/02/19 08:59:49;;;;;;;26.30;13.95;;;15.10;90.10;;;;;;4997968;28;20014;-70
2022/02/19 09:02:14;;;;;;;23.88;14.02;;;15.10;89.60;;;;;;4993107;28;20475;-72
2022/02/19 09:04:40;;;;;;;25.38;13.07;;;15.10;89.60;;;;;;4979237;28;20100;-73
2022/02/19 09:07:06;;;;;;;20.23;12.90;;;15.20;89.60;;;;;;4995921;28;20030;-72
2022/02/19 09:09:36;;;;;;;24.63;13.07;;;15.20;89.10;;;;;;4995482;28;20033;-68
2022/02/19 09:12:05;;;;;;;27.90;13.80;;;15.20;88.80;;;;;;4995398;28;20029;-68
2022/02/19 09:14:30;;;;;;;19.92;11.93;;;15.30;89.00;;;;;;5002583;28;20034;-68
2022/02/19 09:16:56;;;;;;;22.13;10.85;;;15.30;88.30;;;;;;5003886;28;20022;-68
2022/02/19 09:19:22;;;;;;;21.45;11.30;;;15.40;88.30;;;;;;4977885;28;20058;-68
2022/02/19 09:21:48;;;;;;;19.95;11.20;;;15.50;88.20;;;;;;4994011;28;20026;-68
2022/02/19 09:24:14;;;;;;;44.38;13.02;;;15.50;88.20;;;;;;4988714;28;20066;-68
2022/02/19 09:26:39;;;;;;;34.17;11.95;;;15.60;88.10;;;;;;4991875;28;20033;-67
2022/02/19 09:29:05;;;;;;;30.42;12.73;;;15.70;88.10;;;;;;4976694;28;20018;-68
2022/02/19 09:31:32;;;;;;;19.83;12.02;;;15.70;87.60;;;;;;4994407;28;20052;-68
2022/02/19 09:33:57;;;;;;;17.98;11.63;;;15.80;87.20;;;;;;4975265;28;20034;-69
2022/02/19 09:36:23;;;;;;;26.55;12.38;;;15.80;87.10;;;;;;4976856;28;20022;-68
2022/02/19 09:38:49;;;;;;;17.98;12.20;;;15.90;86.70;;;;;;4995047;28;20093;-69
2022/02/19 09:41:17;;;;;;;21.35;12.23;;;15.90;86.30;;;;;;4998883;28;20125;-70
2022/02/19 09:43:44;;;;;;;19.65;10.30;;;16.10;86.20;;;;;;4946758;28;20501;-72
2022/02/19 09:46:14;;;;;;;26.25;11.70;;;16.20;85.40;;;;;;4971035;28;20152;-70
2022/02/19 09:48:52;;;;;;;25.33;11.93;;;16.30;85.20;;;;;;4955652;28;20027;-75
2022/02/19 09:51:19;;;;;;;12.35;7.78;;;16.40;85.00;;;;;;4974775;28;20038;-76
2022/02/19 09:53:45;;;;;;;17.48;8.05;;;16.50;84.30;;;;;;4969873;28;20035;-74
2022/02/19 09:56:11;;;;;;;12.98;5.70;;;16.60;83.90;;;;;;4973572;28;20377;-71
2022/02/19 09:58:41;;;;;;;9.73;3.80;;;16.70;82.90;;;;;;4973547;28;20023;-71
2022/02/19 10:01:25;;;;;;;11.88;3.15;;;16.80;82.70;;;;;;4975223;28;20073;-69
2022/02/19 10:04:02;;;;;;;9.55;3.72;;;16.90;82.70;;;;;;4975252;28;20023;-70
2022/02/19 10:06:39;;;;;;;10.32;3.40;;;17.00;82.30;;;;;;4973865;28;20034;-69
2022/02/19 10:09:16;;;;;;;9.98;3.15;;;17.10;82.30;;;;;;4973185;28;20030;-69
2022/02/19 10:11:42;;;;;;;11.75;3.08;;;17.10;81.70;;;;;;4974466;28;20052;-70
2022/02/19 10:14:20;;;;;;;9.82;3.05;;;17.20;81.50;;;;;;4973116;28;20429;-68
2022/02/19 10:17:18;;;;;;;10.20;2.53;;;17.30;81.30;;;;;;4974467;28;20038;-69
2022/02/19 10:19:59;;;;;;;12.15;2.97;;;17.40;81.20;;;;;;4974732;28;20042;-69
2022/02/19 10:22:29;;;;;;;11.75;3.60;;;17.50;80.90;;;;;;4974475;28;20077;-70
2022/02/19 10:24:56;;;;;;;10.43;3.05;;;17.50;80.70;;;;;;4974572;28;20492;-70
2022/02/19 10:27:44;;;;;;;8.85;3.20;;;17.50;80.60;;;;;;4973120;28;20038;-70
2022/02/19 10:30:30;;;;;;;12.65;2.80;;;17.60;80.50;;;;;;4973233;28;20035;-72
2022/02/19 10:32:57;;;;;;;11.88;3.33;;;17.70;80.40;;;;;;4973627;28;20493;-74
2022/02/19 10:35:43;;;;;;;9.77;3.08;;;17.80;80.00;;;;;;4974146;28;20022;-72
2022/02/19 10:38:14;;;;;;;13.40;3.05;;;17.90;79.60;;;;;;4972474;28;20129;-70
2022/02/19 10:40:52;;;;;;;12.20;4.18;;;17.90;79.60;;;;;;4974464;28;20122;-69
2022/02/19 10:43:29;;;;;;;11.07;3.40;;;17.90;79.80;;;;;;4972565;28;20145;-73
2022/02/19 10:45:59;;;;;;;10.80;3.30;;;18.00;78.80;;;;;;4973859;28;20121;-75
2022/02/19 10:48:29;;;;;;;10.15;2.90;;;18.00;79.00;;;;;;4974477;28;20030;-72
2022/02/19 10:51:15;;;;;;;9.25;2.92;;;18.00;79.70;;;;;;4979273;28;20038;-71
2022/02/19 10:53:49;;;;;;;9.07;2.88;;;18.00;79.20;;;;;;4982662;28;20033;-68
2022/02/19 10:56:17;;;;;;;10.65;3.70;;;18.10;79.10;;;;;;4983241;28;20191;-72
2022/02/19 10:58:59;;;;;;;11.18;4.70;;;18.00;79.30;;;;;;4975660;28;20030;-68
2022/02/19 11:01:26;;;;;;;18.95;6.25;;;18.10;79.30;;;;;;4964613;28;20404;-68
2022/02/19 11:03:54;;;;;;;12.55;6.45;;;18.10;79.00;;;;;;4966404;28;20031;-75
2022/02/19 11:06:21;;;;;;;15.93;6.90;;;18.10;79.40;;;;;;4958100;28;20389;-70
2022/02/19 11:08:52;;;;;;;11.85;5.20;;;18.10;79.40;;;;;;4966611;28;20073;-70
2022/02/19 11:11:18;;;;;;;11.32;4.05;;;18.10;79.40;;;;;;4974212;28;20041;-70
2022/02/19 11:13:45;;;;;;;15.65;3.33;;;18.10;79.30;;;;;;4972516;28;20082;-70
2022/02/19 11:16:13;;;;;;;9.95;3.15;;;18.20;79.10;;;;;;4972650;28;20065;-70
2022/02/19 11:18:40;;;;;;;10.00;3.10;;;18.30;78.60;;;;;;4973203;28;20031;-72
2022/02/19 11:21:06;;;;;;;8.25;2.58;;;18.30;78.80;;;;;;4972668;28;20382;-70
2022/02/19 11:23:34;;;;;;;7.95;2.78;;;18.30;79.00;;;;;;4972321;28;20455;-71
2022/02/19 11:26:02;;;;;;;11.98;3.13;;;18.30;78.70;;;;;;4974000;28;20031;-75
2022/02/19 11:28:33;;;;;;;10.43;2.88;;;18.20;78.40;;;;;;4973700;28;20046;-70
2022/02/19 11:31:02;;;;;;;12.57;3.20;;;18.20;78.80;;;;;;4972471;28;20387;-72
2022/02/19 11:33:31;;;;;;;8.07;2.70;;;18.30;78.80;;;;;;4973801;28;20503;-70
2022/02/19 11:36:03;;;;;;;9.75;3.38;;;18.40;78.20;;;;;;4973910;28;20055;-71
2022/02/19 11:39:22;;;;;;;13.52;3.30;;;18.40;78.20;;;;;;4972612;28;20042;-72
2022/02/19 11:41:43;;;;;;;7.85;2.30;;;18.40;78.10;;;;;;4974356;28;20061;-71
2022/02/19 11:44:15;;;;;;;10.57;3.28;;;18.40;77.50;;;;;;4975703;28;20029;-69
2022/02/19 11:46:41;;;;;;;12.38;2.75;;;18.40;77.20;;;;;;4981619;28;20085;-71
2022/02/19 11:49:24;;;;;;;9.73;2.58;;;18.40;77.30;;;;;;4961765;28;20058;-72
2022/02/19 11:52:02;;;;;;;9.77;2.80;;;18.30;77.20;;;;;;4973598;28;20034;-70
2022/02/19 11:54:28;;;;;;;6.10;2.45;;;18.30;77.50;;;;;;4973485;28;20034;-70
2022/02/19 11:56:54;;;;;;;9.48;3.00;;;18.30;77.10;;;;;;4980423;28;20027;-69
2022/02/19 11:59:21;;;;;;;8.10;2.60;;;18.30;77.40;;;;;;4993357;28;20030;-70
2022/02/19 12:02:14;;;;;;;10.10;2.50;;;18.30;79.80;;;;;;4996630;28;20034;-72
2022/02/19 12:04:40;;;;;;;8.40;2.60;;;18.30;77.90;;;;;;4979370;28;20022;-70
2022/02/19 12:07:09;;;;;;;10.55;2.63;;;18.20;76.50;;;;;;4996649;28;20061;-69
2022/02/19 12:10:04;;;;;;;8.73;2.40;;;18.20;77.60;;;;;;4996334;28;20061;-69
2022/02/19 12:13:09;;;;;;;10.88;2.72;;;18.20;77.70;;;;;;4993910;28;20104;-80
2022/02/19 12:15:37;;;;;;;10.38;2.45;;;18.30;77.60;;;;;;4996480;28;20029;-77
2022/02/19 12:18:03;;;;;;;11.32;3.20;;;18.40;76.70;;;;;;4996011;28;20038;-68
2022/02/19 12:20:33;;;;;;;14.27;4.18;;;18.60;76.80;;;;;;4996001;28;20113;-63
2022/02/19 12:23:04;;;;;;;11.00;3.38;;;18.80;76.60;;;;;;4981095;28;20048;-69
2022/02/19 12:25:55;;;;;;;9.95;2.80;;;19.00;75.20;;;;;;5003904;28;20523;-69
2022/02/19 12:28:21;;;;;;;12.82;3.03;;;19.00;75.00;;;;;;4977007;28;20098;-63
2022/02/19 12:31:11;;;;;;;11.00;3.35;;;19.00;74.00;;;;;;4993338;28;20030;-70
2022/02/19 12:33:37;;;;;;;11.23;2.72;;;19.10;74.20;;;;;;4999242;28;20073;-64
2022/02/19 12:36:08;;;;;;;14.82;5.03;;;19.00;72.90;;;;;;4996082;28;20030;-73
2022/02/19 12:38:34;;;;;;;8.73;2.75;;;18.90;72.80;;;;;;4993820;28;20030;-66
2022/02/19 12:41:00;;;;;;;8.82;2.88;;;18.90;73.40;;;;;;4995947;28;20101;-67
2022/02/19 12:43:26;;;;;;;11.65;3.10;;;18.90;72.80;;;;;;4995753;28;20451;-66